<?xml version="1.0" encoding="UTF-8" standalone="no" ?>
<gpx xmlns="http://www.topografix.com/GPX/1/1" xmlns:xsi="http://www.w3.org/2001/XMLSchema-instance" xsi:schemaLocation="http://www.topografix.com/GPX/1/1 http://www.topografix.com/GPX/1/1/gpx.xsd" version="1.1" creator="VisuGPX - https://www.visugpx.com">
  <metadata>
    <name>autre</name>
    <desc><![CDATA[Guillaume et Pierre]]></desc>
  </metadata>
  <trk>
    <name><![CDATA[09-FEV-14: 08 FEV 2014 22:56]]></name>
    <trkseg>
      <trkpt lat="45.76231" lon="4.86945">
        <ele>177.5</ele>
        <time>2014-02-08T21:56:54Z</time>
      </trkpt>
      <trkpt lat="45.76231" lon="4.86945">
        <ele>240.95</ele>
        <time>2014-02-08T21:58:37Z</time>
      </trkpt>
      <trkpt lat="45.76231" lon="4.86945">
        <ele>177.5</ele>
        <time>2014-02-09T08:29:30Z</time>
      </trkpt>
      <trkpt lat="45.76231" lon="4.86945">
        <ele>214.99</ele>
        <time>2014-02-09T08:29:33Z</time>
      </trkpt>
      <trkpt lat="45.76231" lon="4.86945">
        <ele>177.5</ele>
        <time>2014-02-09T08:53:21Z</time>
      </trkpt>
      <trkpt lat="45.76231" lon="4.86945">
        <ele>201.05</ele>
        <time>2014-02-09T08:53:22Z</time>
      </trkpt>
      <trkpt lat="45.76231" lon="4.86945">
        <ele>197.69</ele>
        <time>2014-02-09T08:56:18Z</time>
      </trkpt>
      <trkpt lat="45.77713" lon="4.84504">
        <ele>200.09</ele>
        <time>2014-02-09T08:59:53Z</time>
      </trkpt>
      <trkpt lat="45.77733" lon="4.84497">
        <ele>198.17</ele>
        <time>2014-02-09T09:00:53Z</time>
      </trkpt>
      <trkpt lat="45.77758" lon="4.84478">
        <ele>198.17</ele>
        <time>2014-02-09T09:01:05Z</time>
      </trkpt>
      <trkpt lat="45.77803" lon="4.84465">
        <ele>198.65</ele>
        <time>2014-02-09T09:01:24Z</time>
      </trkpt>
      <trkpt lat="45.77812" lon="4.84431">
        <ele>199.13</ele>
        <time>2014-02-09T09:01:35Z</time>
      </trkpt>
      <trkpt lat="45.77844" lon="4.8434">
        <ele>201.05</ele>
        <time>2014-02-09T09:02:02Z</time>
      </trkpt>
      <trkpt lat="45.77855" lon="4.84298">
        <ele>201.05</ele>
        <time>2014-02-09T09:02:13Z</time>
      </trkpt>
      <trkpt lat="45.77887" lon="4.8421">
        <ele>201.05</ele>
        <time>2014-02-09T09:02:39Z</time>
      </trkpt>
      <trkpt lat="45.77902" lon="4.84158">
        <ele>199.13</ele>
        <time>2014-02-09T09:02:54Z</time>
      </trkpt>
      <trkpt lat="45.77924" lon="4.84126">
        <ele>198.65</ele>
        <time>2014-02-09T09:03:06Z</time>
      </trkpt>
      <trkpt lat="45.7793" lon="4.84124">
        <ele>198.17</ele>
        <time>2014-02-09T09:03:09Z</time>
      </trkpt>
      <trkpt lat="45.77977" lon="4.84167">
        <ele>197.21</ele>
        <time>2014-02-09T09:03:28Z</time>
      </trkpt>
      <trkpt lat="45.78007" lon="4.84177">
        <ele>197.21</ele>
        <time>2014-02-09T09:03:38Z</time>
      </trkpt>
      <trkpt lat="45.78035" lon="4.84199">
        <ele>196.73</ele>
        <time>2014-02-09T09:03:49Z</time>
      </trkpt>
      <trkpt lat="45.78059" lon="4.84227">
        <ele>197.21</ele>
        <time>2014-02-09T09:03:59Z</time>
      </trkpt>
      <trkpt lat="45.78087" lon="4.84242">
        <ele>196.73</ele>
        <time>2014-02-09T09:04:10Z</time>
      </trkpt>
      <trkpt lat="45.78151" lon="4.84289">
        <ele>196.73</ele>
        <time>2014-02-09T09:04:34Z</time>
      </trkpt>
      <trkpt lat="45.78177" lon="4.84313">
        <ele>196.73</ele>
        <time>2014-02-09T09:04:43Z</time>
      </trkpt>
      <trkpt lat="45.78215" lon="4.8436">
        <ele>197.21</ele>
        <time>2014-02-09T09:05:01Z</time>
      </trkpt>
      <trkpt lat="45.78267" lon="4.84394">
        <ele>196.25</ele>
        <time>2014-02-09T09:05:19Z</time>
      </trkpt>
      <trkpt lat="45.78293" lon="4.84424">
        <ele>196.25</ele>
        <time>2014-02-09T09:05:31Z</time>
      </trkpt>
      <trkpt lat="45.78346" lon="4.84476">
        <ele>196.25</ele>
        <time>2014-02-09T09:05:52Z</time>
      </trkpt>
      <trkpt lat="45.78376" lon="4.84512">
        <ele>195.77</ele>
        <time>2014-02-09T09:06:04Z</time>
      </trkpt>
      <trkpt lat="45.78396" lon="4.84549">
        <ele>195.28</ele>
        <time>2014-02-09T09:06:14Z</time>
      </trkpt>
      <trkpt lat="45.78449" lon="4.84617">
        <ele>194.32</ele>
        <time>2014-02-09T09:06:39Z</time>
      </trkpt>
      <trkpt lat="45.78475" lon="4.84647">
        <ele>194.8</ele>
        <time>2014-02-09T09:06:51Z</time>
      </trkpt>
      <trkpt lat="45.78514" lon="4.84705">
        <ele>195.28</ele>
        <time>2014-02-09T09:07:09Z</time>
      </trkpt>
      <trkpt lat="45.78524" lon="4.84712">
        <ele>195.28</ele>
        <time>2014-02-09T09:07:16Z</time>
      </trkpt>
      <trkpt lat="45.78544" lon="4.84697">
        <ele>196.73</ele>
        <time>2014-02-09T09:07:27Z</time>
      </trkpt>
      <trkpt lat="45.78563" lon="4.84667">
        <ele>202.01</ele>
        <time>2014-02-09T09:07:43Z</time>
      </trkpt>
      <trkpt lat="45.7857" lon="4.8466">
        <ele>203.46</ele>
        <time>2014-02-09T09:07:48Z</time>
      </trkpt>
      <trkpt lat="45.7858" lon="4.84654">
        <ele>206.82</ele>
        <time>2014-02-09T09:07:55Z</time>
      </trkpt>
      <trkpt lat="45.78593" lon="4.84641">
        <ele>209.7</ele>
        <time>2014-02-09T09:08:05Z</time>
      </trkpt>
      <trkpt lat="45.7861" lon="4.84637">
        <ele>213.07</ele>
        <time>2014-02-09T09:08:14Z</time>
      </trkpt>
      <trkpt lat="45.78625" lon="4.84617">
        <ele>215.95</ele>
        <time>2014-02-09T09:08:26Z</time>
      </trkpt>
      <trkpt lat="45.78649" lon="4.84594">
        <ele>222.68</ele>
        <time>2014-02-09T09:08:54Z</time>
      </trkpt>
      <trkpt lat="45.78696" lon="4.84559">
        <ele>231.33</ele>
        <time>2014-02-09T09:09:25Z</time>
      </trkpt>
      <trkpt lat="45.78713" lon="4.84551">
        <ele>234.22</ele>
        <time>2014-02-09T09:09:38Z</time>
      </trkpt>
      <trkpt lat="45.78728" lon="4.84538">
        <ele>237.1</ele>
        <time>2014-02-09T09:09:49Z</time>
      </trkpt>
      <trkpt lat="45.7872" lon="4.84531">
        <ele>239.51</ele>
        <time>2014-02-09T09:10:03Z</time>
      </trkpt>
      <trkpt lat="45.78696" lon="4.84529">
        <ele>241.43</ele>
        <time>2014-02-09T09:10:15Z</time>
      </trkpt>
      <trkpt lat="45.7867" lon="4.84523">
        <ele>243.83</ele>
        <time>2014-02-09T09:10:29Z</time>
      </trkpt>
      <trkpt lat="45.78657" lon="4.84508">
        <ele>246.72</ele>
        <time>2014-02-09T09:10:39Z</time>
      </trkpt>
      <trkpt lat="45.7866" lon="4.84486">
        <ele>249.6</ele>
        <time>2014-02-09T09:10:47Z</time>
      </trkpt>
      <trkpt lat="45.78685" lon="4.84443">
        <ele>256.81</ele>
        <time>2014-02-09T09:11:09Z</time>
      </trkpt>
      <trkpt lat="45.78711" lon="4.84409">
        <ele>261.14</ele>
        <time>2014-02-09T09:11:27Z</time>
      </trkpt>
      <trkpt lat="45.78745" lon="4.84353">
        <ele>263.06</ele>
        <time>2014-02-09T09:11:53Z</time>
      </trkpt>
      <trkpt lat="45.7876" lon="4.84334">
        <ele>265.46</ele>
        <time>2014-02-09T09:12:04Z</time>
      </trkpt>
      <trkpt lat="45.78771" lon="4.84319">
        <ele>268.83</ele>
        <time>2014-02-09T09:12:12Z</time>
      </trkpt>
      <trkpt lat="45.78776" lon="4.8431">
        <ele>270.75</ele>
        <time>2014-02-09T09:12:17Z</time>
      </trkpt>
      <trkpt lat="45.78769" lon="4.84304">
        <ele>272.19</ele>
        <time>2014-02-09T09:12:26Z</time>
      </trkpt>
      <trkpt lat="45.78771" lon="4.843">
        <ele>272.67</ele>
        <time>2014-02-09T09:12:30Z</time>
      </trkpt>
      <trkpt lat="45.78758" lon="4.84274">
        <ele>273.15</ele>
        <time>2014-02-09T09:12:49Z</time>
      </trkpt>
      <trkpt lat="45.78745" lon="4.84255">
        <ele>273.15</ele>
        <time>2014-02-09T09:13:03Z</time>
      </trkpt>
      <trkpt lat="45.78728" lon="4.84222">
        <ele>271.71</ele>
        <time>2014-02-09T09:13:14Z</time>
      </trkpt>
      <trkpt lat="45.78713" lon="4.84188">
        <ele>269.79</ele>
        <time>2014-02-09T09:13:24Z</time>
      </trkpt>
      <trkpt lat="45.78696" lon="4.84154">
        <ele>267.38</ele>
        <time>2014-02-09T09:13:35Z</time>
      </trkpt>
      <trkpt lat="45.78645" lon="4.84034">
        <ele>265.46</ele>
        <time>2014-02-09T09:14:11Z</time>
      </trkpt>
      <trkpt lat="45.78623" lon="4.83991">
        <ele>264.5</ele>
        <time>2014-02-09T09:14:24Z</time>
      </trkpt>
      <trkpt lat="45.78604" lon="4.83963">
        <ele>264.5</ele>
        <time>2014-02-09T09:14:33Z</time>
      </trkpt>
      <trkpt lat="45.78578" lon="4.83894">
        <ele>264.5</ele>
        <time>2014-02-09T09:14:53Z</time>
      </trkpt>
      <trkpt lat="45.78509" lon="4.83757">
        <ele>264.5</ele>
        <time>2014-02-09T09:15:37Z</time>
      </trkpt>
      <trkpt lat="45.78492" lon="4.83731">
        <ele>264.02</ele>
        <time>2014-02-09T09:15:46Z</time>
      </trkpt>
      <trkpt lat="45.78484" lon="4.83692">
        <ele>265.94</ele>
        <time>2014-02-09T09:15:58Z</time>
      </trkpt>
      <trkpt lat="45.78473" lon="4.83624">
        <ele>266.9</ele>
        <time>2014-02-09T09:16:17Z</time>
      </trkpt>
      <trkpt lat="45.78451" lon="4.83581">
        <ele>266.42</ele>
        <time>2014-02-09T09:16:31Z</time>
      </trkpt>
      <trkpt lat="45.78391" lon="4.83497">
        <ele>261.62</ele>
        <time>2014-02-09T09:17:00Z</time>
      </trkpt>
      <trkpt lat="45.78355" lon="4.83474">
        <ele>259.21</ele>
        <time>2014-02-09T09:17:12Z</time>
      </trkpt>
      <trkpt lat="45.78336" lon="4.83491">
        <ele>258.25</ele>
        <time>2014-02-09T09:17:21Z</time>
      </trkpt>
      <trkpt lat="45.78314" lon="4.83521">
        <ele>255.37</ele>
        <time>2014-02-09T09:17:34Z</time>
      </trkpt>
      <trkpt lat="45.7831" lon="4.83562">
        <ele>252.48</ele>
        <time>2014-02-09T09:17:45Z</time>
      </trkpt>
      <trkpt lat="45.78303" lon="4.83579">
        <ele>249.12</ele>
        <time>2014-02-09T09:17:54Z</time>
      </trkpt>
      <trkpt lat="45.78301" lon="4.83615">
        <ele>243.35</ele>
        <time>2014-02-09T09:18:06Z</time>
      </trkpt>
      <trkpt lat="45.7831" lon="4.83671">
        <ele>241.43</ele>
        <time>2014-02-09T09:18:21Z</time>
      </trkpt>
      <trkpt lat="45.78301" lon="4.83725">
        <ele>239.51</ele>
        <time>2014-02-09T09:18:33Z</time>
      </trkpt>
      <trkpt lat="45.78288" lon="4.83785">
        <ele>233.26</ele>
        <time>2014-02-09T09:18:47Z</time>
      </trkpt>
      <trkpt lat="45.78267" lon="4.83862">
        <ele>230.85</ele>
        <time>2014-02-09T09:19:06Z</time>
      </trkpt>
      <trkpt lat="45.7822" lon="4.8389">
        <ele>226.05</ele>
        <time>2014-02-09T09:19:23Z</time>
      </trkpt>
      <trkpt lat="45.78179" lon="4.83937">
        <ele>219.32</ele>
        <time>2014-02-09T09:19:41Z</time>
      </trkpt>
      <trkpt lat="45.78143" lon="4.83952">
        <ele>219.32</ele>
        <time>2014-02-09T09:19:54Z</time>
      </trkpt>
      <trkpt lat="45.7813" lon="4.83969">
        <ele>216.91</ele>
        <time>2014-02-09T09:20:00Z</time>
      </trkpt>
      <trkpt lat="45.78085" lon="4.8401">
        <ele>211.15</ele>
        <time>2014-02-09T09:20:20Z</time>
      </trkpt>
      <trkpt lat="45.78087" lon="4.84014">
        <ele>211.15</ele>
        <time>2014-02-09T09:20:21Z</time>
      </trkpt>
      <trkpt lat="45.78089" lon="4.84006">
        <ele>208.74</ele>
        <time>2014-02-09T09:20:28Z</time>
      </trkpt>
      <trkpt lat="45.78091" lon="4.84016">
        <ele>207.78</ele>
        <time>2014-02-09T09:20:32Z</time>
      </trkpt>
      <trkpt lat="45.78093" lon="4.84004">
        <ele>206.34</ele>
        <time>2014-02-09T09:20:38Z</time>
      </trkpt>
      <trkpt lat="45.78065" lon="4.84023">
        <ele>202.98</ele>
        <time>2014-02-09T09:20:47Z</time>
      </trkpt>
      <trkpt lat="45.78024" lon="4.84072">
        <ele>196.73</ele>
        <time>2014-02-09T09:21:06Z</time>
      </trkpt>
      <trkpt lat="45.77992" lon="4.84102">
        <ele>191.92</ele>
        <time>2014-02-09T09:21:19Z</time>
      </trkpt>
      <trkpt lat="45.77958" lon="4.84115">
        <ele>189.04</ele>
        <time>2014-02-09T09:21:32Z</time>
      </trkpt>
      <trkpt lat="45.77952" lon="4.84104">
        <ele>188.56</ele>
        <time>2014-02-09T09:21:35Z</time>
      </trkpt>
      <trkpt lat="45.7793" lon="4.84087">
        <ele>187.59</ele>
        <time>2014-02-09T09:21:43Z</time>
      </trkpt>
      <trkpt lat="45.77906" lon="4.84072">
        <ele>187.59</ele>
        <time>2014-02-09T09:21:53Z</time>
      </trkpt>
      <trkpt lat="45.77894" lon="4.84053">
        <ele>188.56</ele>
        <time>2014-02-09T09:22:04Z</time>
      </trkpt>
      <trkpt lat="45.77896" lon="4.84019">
        <ele>192.4</ele>
        <time>2014-02-09T09:22:19Z</time>
      </trkpt>
      <trkpt lat="45.77896" lon="4.84008">
        <ele>195.77</ele>
        <time>2014-02-09T09:22:24Z</time>
      </trkpt>
      <trkpt lat="45.77887" lon="4.83993">
        <ele>199.13</ele>
        <time>2014-02-09T09:22:35Z</time>
      </trkpt>
      <trkpt lat="45.77883" lon="4.83971">
        <ele>202.49</ele>
        <time>2014-02-09T09:22:48Z</time>
      </trkpt>
      <trkpt lat="45.77879" lon="4.83959">
        <ele>205.86</ele>
        <time>2014-02-09T09:22:58Z</time>
      </trkpt>
      <trkpt lat="45.77874" lon="4.83956">
        <ele>209.22</ele>
        <time>2014-02-09T09:23:07Z</time>
      </trkpt>
      <trkpt lat="45.77868" lon="4.83956">
        <ele>213.07</ele>
        <time>2014-02-09T09:23:27Z</time>
      </trkpt>
      <trkpt lat="45.77864" lon="4.83956">
        <ele>219.8</ele>
        <time>2014-02-09T09:23:59Z</time>
      </trkpt>
      <trkpt lat="45.77859" lon="4.83954">
        <ele>226.05</ele>
        <time>2014-02-09T09:24:24Z</time>
      </trkpt>
      <trkpt lat="45.77814" lon="4.83922">
        <ele>228.45</ele>
        <time>2014-02-09T09:24:38Z</time>
      </trkpt>
      <trkpt lat="45.77782" lon="4.83888">
        <ele>235.66</ele>
        <time>2014-02-09T09:25:06Z</time>
      </trkpt>
      <trkpt lat="45.77769" lon="4.83866">
        <ele>242.39</ele>
        <time>2014-02-09T09:25:33Z</time>
      </trkpt>
      <trkpt lat="45.77767" lon="4.83873">
        <ele>242.39</ele>
        <time>2014-02-09T09:25:37Z</time>
      </trkpt>
      <trkpt lat="45.77756" lon="4.83875">
        <ele>243.35</ele>
        <time>2014-02-09T09:25:42Z</time>
      </trkpt>
      <trkpt lat="45.77737" lon="4.83875">
        <ele>244.79</ele>
        <time>2014-02-09T09:25:59Z</time>
      </trkpt>
      <trkpt lat="45.77716" lon="4.83868">
        <ele>245.75</ele>
        <time>2014-02-09T09:26:20Z</time>
      </trkpt>
      <trkpt lat="45.77707" lon="4.83879">
        <ele>245.75</ele>
        <time>2014-02-09T09:26:37Z</time>
      </trkpt>
      <trkpt lat="45.77718" lon="4.83849">
        <ele>245.75</ele>
        <time>2014-02-09T09:27:15Z</time>
      </trkpt>
      <trkpt lat="45.77705" lon="4.83845">
        <ele>245.75</ele>
        <time>2014-02-09T09:28:16Z</time>
      </trkpt>
      <trkpt lat="45.77692" lon="4.838">
        <ele>248.16</ele>
        <time>2014-02-09T09:28:51Z</time>
      </trkpt>
      <trkpt lat="45.77653" lon="4.83718">
        <ele>250.56</ele>
        <time>2014-02-09T09:29:18Z</time>
      </trkpt>
      <trkpt lat="45.77643" lon="4.83682">
        <ele>252</ele>
        <time>2014-02-09T09:29:31Z</time>
      </trkpt>
      <trkpt lat="45.77643" lon="4.83671">
        <ele>251.52</ele>
        <time>2014-02-09T09:29:34Z</time>
      </trkpt>
      <trkpt lat="45.77651" lon="4.83624">
        <ele>252.96</ele>
        <time>2014-02-09T09:29:47Z</time>
      </trkpt>
      <trkpt lat="45.77625" lon="4.83607">
        <ele>251.52</ele>
        <time>2014-02-09T09:30:01Z</time>
      </trkpt>
      <trkpt lat="45.77615" lon="4.83602">
        <ele>248.64</ele>
        <time>2014-02-09T09:30:09Z</time>
      </trkpt>
      <trkpt lat="45.77597" lon="4.83611">
        <ele>243.35</ele>
        <time>2014-02-09T09:30:19Z</time>
      </trkpt>
      <trkpt lat="45.77597" lon="4.83643">
        <ele>239.02</ele>
        <time>2014-02-09T09:30:32Z</time>
      </trkpt>
      <trkpt lat="45.77589" lon="4.83677">
        <ele>235.66</ele>
        <time>2014-02-09T09:30:42Z</time>
      </trkpt>
      <trkpt lat="45.776" lon="4.8374">
        <ele>232.78</ele>
        <time>2014-02-09T09:30:55Z</time>
      </trkpt>
      <trkpt lat="45.77593" lon="4.83813">
        <ele>229.89</ele>
        <time>2014-02-09T09:31:15Z</time>
      </trkpt>
      <trkpt lat="45.7758" lon="4.83821">
        <ele>226.53</ele>
        <time>2014-02-09T09:31:23Z</time>
      </trkpt>
      <trkpt lat="45.77555" lon="4.83841">
        <ele>220.28</ele>
        <time>2014-02-09T09:31:38Z</time>
      </trkpt>
      <trkpt lat="45.77548" lon="4.83853">
        <ele>215.47</ele>
        <time>2014-02-09T09:31:47Z</time>
      </trkpt>
      <trkpt lat="45.77552" lon="4.83864">
        <ele>212.11</ele>
        <time>2014-02-09T09:31:58Z</time>
      </trkpt>
      <trkpt lat="45.77552" lon="4.83862">
        <ele>210.19</ele>
        <time>2014-02-09T09:32:04Z</time>
      </trkpt>
      <trkpt lat="45.77546" lon="4.83858">
        <ele>208.26</ele>
        <time>2014-02-09T09:32:12Z</time>
      </trkpt>
      <trkpt lat="45.77531" lon="4.83834">
        <ele>206.34</ele>
        <time>2014-02-09T09:32:32Z</time>
      </trkpt>
      <trkpt lat="45.7754" lon="4.83795">
        <ele>204.42</ele>
        <time>2014-02-09T09:32:44Z</time>
      </trkpt>
      <trkpt lat="45.77535" lon="4.83772">
        <ele>202.98</ele>
        <time>2014-02-09T09:32:51Z</time>
      </trkpt>
      <trkpt lat="45.77512" lon="4.83776">
        <ele>198.65</ele>
        <time>2014-02-09T09:33:06Z</time>
      </trkpt>
      <trkpt lat="45.77507" lon="4.8377">
        <ele>196.73</ele>
        <time>2014-02-09T09:33:09Z</time>
      </trkpt>
      <trkpt lat="45.77475" lon="4.83757">
        <ele>192.88</ele>
        <time>2014-02-09T09:33:23Z</time>
      </trkpt>
      <trkpt lat="45.77454" lon="4.83761">
        <ele>189.52</ele>
        <time>2014-02-09T09:33:32Z</time>
      </trkpt>
      <trkpt lat="45.77432" lon="4.8374">
        <ele>186.15</ele>
        <time>2014-02-09T09:33:41Z</time>
      </trkpt>
      <trkpt lat="45.77432" lon="4.8374">
        <ele>187.59</ele>
        <time>2014-02-09T09:33:52Z</time>
      </trkpt>
      <trkpt lat="45.77426" lon="4.83753">
        <ele>190.96</ele>
        <time>2014-02-09T09:34:00Z</time>
      </trkpt>
      <trkpt lat="45.77419" lon="4.83735">
        <ele>192.88</ele>
        <time>2014-02-09T09:34:13Z</time>
      </trkpt>
      <trkpt lat="45.77424" lon="4.83731">
        <ele>196.73</ele>
        <time>2014-02-09T09:34:24Z</time>
      </trkpt>
      <trkpt lat="45.77424" lon="4.83735">
        <ele>197.21</ele>
        <time>2014-02-09T09:34:26Z</time>
      </trkpt>
      <trkpt lat="45.77428" lon="4.83733">
        <ele>199.61</ele>
        <time>2014-02-09T09:34:34Z</time>
      </trkpt>
      <trkpt lat="45.7743" lon="4.83731">
        <ele>200.09</ele>
        <time>2014-02-09T09:34:36Z</time>
      </trkpt>
      <trkpt lat="45.77424" lon="4.83725">
        <ele>202.01</ele>
        <time>2014-02-09T09:34:46Z</time>
      </trkpt>
      <trkpt lat="45.77428" lon="4.83714">
        <ele>204.9</ele>
        <time>2014-02-09T09:34:55Z</time>
      </trkpt>
      <trkpt lat="45.7743" lon="4.83714">
        <ele>206.82</ele>
        <time>2014-02-09T09:34:58Z</time>
      </trkpt>
      <trkpt lat="45.77437" lon="4.8371">
        <ele>207.78</ele>
        <time>2014-02-09T09:35:03Z</time>
      </trkpt>
      <trkpt lat="45.77456" lon="4.8371">
        <ele>213.07</ele>
        <time>2014-02-09T09:35:29Z</time>
      </trkpt>
      <trkpt lat="45.77464" lon="4.83692">
        <ele>217.4</ele>
        <time>2014-02-09T09:35:47Z</time>
      </trkpt>
      <trkpt lat="45.77464" lon="4.83675">
        <ele>223.64</ele>
        <time>2014-02-09T09:36:09Z</time>
      </trkpt>
      <trkpt lat="45.77469" lon="4.83669">
        <ele>226.53</ele>
        <time>2014-02-09T09:36:18Z</time>
      </trkpt>
      <trkpt lat="45.77473" lon="4.83656">
        <ele>229.41</ele>
        <time>2014-02-09T09:36:31Z</time>
      </trkpt>
      <trkpt lat="45.77477" lon="4.83624">
        <ele>232.3</ele>
        <time>2014-02-09T09:36:47Z</time>
      </trkpt>
      <trkpt lat="45.77473" lon="4.83613">
        <ele>236.62</ele>
        <time>2014-02-09T09:37:01Z</time>
      </trkpt>
      <trkpt lat="45.77473" lon="4.8362">
        <ele>238.06</ele>
        <time>2014-02-09T09:37:04Z</time>
      </trkpt>
      <trkpt lat="45.77479" lon="4.83624">
        <ele>239.02</ele>
        <time>2014-02-09T09:37:11Z</time>
      </trkpt>
      <trkpt lat="45.77479" lon="4.83615">
        <ele>239.99</ele>
        <time>2014-02-09T09:37:16Z</time>
      </trkpt>
      <trkpt lat="45.77488" lon="4.83592">
        <ele>241.91</ele>
        <time>2014-02-09T09:37:31Z</time>
      </trkpt>
      <trkpt lat="45.77482" lon="4.83544">
        <ele>245.27</ele>
        <time>2014-02-09T09:37:57Z</time>
      </trkpt>
      <trkpt lat="45.77479" lon="4.83519">
        <ele>250.08</ele>
        <time>2014-02-09T09:38:12Z</time>
      </trkpt>
      <trkpt lat="45.77479" lon="4.83497">
        <ele>251.04</ele>
        <time>2014-02-09T09:38:21Z</time>
      </trkpt>
      <trkpt lat="45.77471" lon="4.83482">
        <ele>252.96</ele>
        <time>2014-02-09T09:38:30Z</time>
      </trkpt>
      <trkpt lat="45.77456" lon="4.83474">
        <ele>253.44</ele>
        <time>2014-02-09T09:38:39Z</time>
      </trkpt>
      <trkpt lat="45.77445" lon="4.83461">
        <ele>252.96</ele>
        <time>2014-02-09T09:38:47Z</time>
      </trkpt>
      <trkpt lat="45.77424" lon="4.83465">
        <ele>252</ele>
        <time>2014-02-09T09:38:58Z</time>
      </trkpt>
      <trkpt lat="45.77396" lon="4.83461">
        <ele>245.27</ele>
        <time>2014-02-09T09:39:10Z</time>
      </trkpt>
      <trkpt lat="45.77364" lon="4.83467">
        <ele>242.39</ele>
        <time>2014-02-09T09:39:21Z</time>
      </trkpt>
      <trkpt lat="45.7734" lon="4.83465">
        <ele>239.02</ele>
        <time>2014-02-09T09:39:30Z</time>
      </trkpt>
      <trkpt lat="45.77329" lon="4.83461">
        <ele>237.1</ele>
        <time>2014-02-09T09:39:34Z</time>
      </trkpt>
      <trkpt lat="45.77308" lon="4.83467">
        <ele>234.22</ele>
        <time>2014-02-09T09:39:41Z</time>
      </trkpt>
      <trkpt lat="45.77271" lon="4.83456">
        <ele>233.26</ele>
        <time>2014-02-09T09:39:53Z</time>
      </trkpt>
      <trkpt lat="45.77246" lon="4.83459">
        <ele>232.78</ele>
        <time>2014-02-09T09:40:04Z</time>
      </trkpt>
      <trkpt lat="45.77224" lon="4.83459">
        <ele>229.89</ele>
        <time>2014-02-09T09:40:18Z</time>
      </trkpt>
      <trkpt lat="45.77218" lon="4.83407">
        <ele>228.45</ele>
        <time>2014-02-09T09:40:31Z</time>
      </trkpt>
      <trkpt lat="45.7722" lon="4.83377">
        <ele>227.49</ele>
        <time>2014-02-09T09:40:39Z</time>
      </trkpt>
      <trkpt lat="45.77246" lon="4.83321">
        <ele>225.57</ele>
        <time>2014-02-09T09:40:51Z</time>
      </trkpt>
      <trkpt lat="45.77239" lon="4.83313">
        <ele>225.09</ele>
        <time>2014-02-09T09:40:54Z</time>
      </trkpt>
      <trkpt lat="45.77136" lon="4.83332">
        <ele>221.72</ele>
        <time>2014-02-09T09:41:07Z</time>
      </trkpt>
      <trkpt lat="45.7711" lon="4.83353">
        <ele>220.28</ele>
        <time>2014-02-09T09:41:18Z</time>
      </trkpt>
      <trkpt lat="45.77093" lon="4.83349">
        <ele>216.91</ele>
        <time>2014-02-09T09:41:24Z</time>
      </trkpt>
      <trkpt lat="45.77078" lon="4.83358">
        <ele>213.07</ele>
        <time>2014-02-09T09:41:35Z</time>
      </trkpt>
      <trkpt lat="45.77063" lon="4.8336">
        <ele>210.19</ele>
        <time>2014-02-09T09:41:40Z</time>
      </trkpt>
      <trkpt lat="45.77033" lon="4.83353">
        <ele>207.78</ele>
        <time>2014-02-09T09:41:48Z</time>
      </trkpt>
      <trkpt lat="45.7702" lon="4.83343">
        <ele>206.82</ele>
        <time>2014-02-09T09:41:54Z</time>
      </trkpt>
      <trkpt lat="45.77014" lon="4.83358">
        <ele>205.38</ele>
        <time>2014-02-09T09:42:03Z</time>
      </trkpt>
      <trkpt lat="45.77007" lon="4.83353">
        <ele>202.98</ele>
        <time>2014-02-09T09:42:08Z</time>
      </trkpt>
      <trkpt lat="45.76999" lon="4.83338">
        <ele>201.05</ele>
        <time>2014-02-09T09:42:13Z</time>
      </trkpt>
      <trkpt lat="45.76999" lon="4.83343">
        <ele>200.09</ele>
        <time>2014-02-09T09:42:22Z</time>
      </trkpt>
      <trkpt lat="45.7699" lon="4.83336">
        <ele>194.32</ele>
        <time>2014-02-09T09:42:36Z</time>
      </trkpt>
      <trkpt lat="45.76984" lon="4.83321">
        <ele>192.88</ele>
        <time>2014-02-09T09:42:49Z</time>
      </trkpt>
      <trkpt lat="45.76982" lon="4.83261">
        <ele>193.84</ele>
        <time>2014-02-09T09:43:03Z</time>
      </trkpt>
      <trkpt lat="45.76975" lon="4.83218">
        <ele>194.32</ele>
        <time>2014-02-09T09:43:16Z</time>
      </trkpt>
      <trkpt lat="45.76982" lon="4.83186">
        <ele>194.8</ele>
        <time>2014-02-09T09:43:24Z</time>
      </trkpt>
      <trkpt lat="45.76949" lon="4.83195">
        <ele>194.8</ele>
        <time>2014-02-09T09:43:29Z</time>
      </trkpt>
      <trkpt lat="45.769" lon="4.83223">
        <ele>191.92</ele>
        <time>2014-02-09T09:43:38Z</time>
      </trkpt>
      <trkpt lat="45.76872" lon="4.83218">
        <ele>189.04</ele>
        <time>2014-02-09T09:43:50Z</time>
      </trkpt>
      <trkpt lat="45.76874" lon="4.83218">
        <ele>189.52</ele>
        <time>2014-02-09T09:43:51Z</time>
      </trkpt>
      <trkpt lat="45.76877" lon="4.83201">
        <ele>187.59</ele>
        <time>2014-02-09T09:44:00Z</time>
      </trkpt>
      <trkpt lat="45.76866" lon="4.83205">
        <ele>186.15</ele>
        <time>2014-02-09T09:44:03Z</time>
      </trkpt>
      <trkpt lat="45.76816" lon="4.83195">
        <ele>185.19</ele>
        <time>2014-02-09T09:44:14Z</time>
      </trkpt>
      <trkpt lat="45.76797" lon="4.83184">
        <ele>185.19</ele>
        <time>2014-02-09T09:44:19Z</time>
      </trkpt>
      <trkpt lat="45.76797" lon="4.83158">
        <ele>183.75</ele>
        <time>2014-02-09T09:44:25Z</time>
      </trkpt>
      <trkpt lat="45.76812" lon="4.83092">
        <ele>184.23</ele>
        <time>2014-02-09T09:44:40Z</time>
      </trkpt>
      <trkpt lat="45.76831" lon="4.83049">
        <ele>183.75</ele>
        <time>2014-02-09T09:44:53Z</time>
      </trkpt>
      <trkpt lat="45.76838" lon="4.82993">
        <ele>183.27</ele>
        <time>2014-02-09T09:45:07Z</time>
      </trkpt>
      <trkpt lat="45.76827" lon="4.82939">
        <ele>182.79</ele>
        <time>2014-02-09T09:45:23Z</time>
      </trkpt>
      <trkpt lat="45.76836" lon="4.82888">
        <ele>182.79</ele>
        <time>2014-02-09T09:45:40Z</time>
      </trkpt>
      <trkpt lat="45.76834" lon="4.8283">
        <ele>181.83</ele>
        <time>2014-02-09T09:45:56Z</time>
      </trkpt>
      <trkpt lat="45.76778" lon="4.82813">
        <ele>180.38</ele>
        <time>2014-02-09T09:46:10Z</time>
      </trkpt>
      <trkpt lat="45.76756" lon="4.82804">
        <ele>182.79</ele>
        <time>2014-02-09T09:46:21Z</time>
      </trkpt>
      <trkpt lat="45.76741" lon="4.82791">
        <ele>185.19</ele>
        <time>2014-02-09T09:46:37Z</time>
      </trkpt>
      <trkpt lat="45.76718" lon="4.82761">
        <ele>183.75</ele>
        <time>2014-02-09T09:46:54Z</time>
      </trkpt>
      <trkpt lat="45.76698" lon="4.82781">
        <ele>182.31</ele>
        <time>2014-02-09T09:47:06Z</time>
      </trkpt>
      <trkpt lat="45.76677" lon="4.82813">
        <ele>182.79</ele>
        <time>2014-02-09T09:47:19Z</time>
      </trkpt>
      <trkpt lat="45.7666" lon="4.82832">
        <ele>182.79</ele>
        <time>2014-02-09T09:47:27Z</time>
      </trkpt>
      <trkpt lat="45.76645" lon="4.82841">
        <ele>182.79</ele>
        <time>2014-02-09T09:47:33Z</time>
      </trkpt>
      <trkpt lat="45.76636" lon="4.82834">
        <ele>183.27</ele>
        <time>2014-02-09T09:47:37Z</time>
      </trkpt>
      <trkpt lat="45.76634" lon="4.82798">
        <ele>182.31</ele>
        <time>2014-02-09T09:47:47Z</time>
      </trkpt>
      <trkpt lat="45.7663" lon="4.82757">
        <ele>183.27</ele>
        <time>2014-02-09T09:47:59Z</time>
      </trkpt>
      <trkpt lat="45.76619" lon="4.82759">
        <ele>184.71</ele>
        <time>2014-02-09T09:48:08Z</time>
      </trkpt>
      <trkpt lat="45.76595" lon="4.82718">
        <ele>186.15</ele>
        <time>2014-02-09T09:48:21Z</time>
      </trkpt>
      <trkpt lat="45.76585" lon="4.82705">
        <ele>187.59</ele>
        <time>2014-02-09T09:48:32Z</time>
      </trkpt>
      <trkpt lat="45.76587" lon="4.82675">
        <ele>190.48</ele>
        <time>2014-02-09T09:48:50Z</time>
      </trkpt>
      <trkpt lat="45.76568" lon="4.82656">
        <ele>191.92</ele>
        <time>2014-02-09T09:49:02Z</time>
      </trkpt>
      <trkpt lat="45.76546" lon="4.8265">
        <ele>194.32</ele>
        <time>2014-02-09T09:49:19Z</time>
      </trkpt>
      <trkpt lat="45.76516" lon="4.82654">
        <ele>197.21</ele>
        <time>2014-02-09T09:49:36Z</time>
      </trkpt>
      <trkpt lat="45.7649" lon="4.82665">
        <ele>200.09</ele>
        <time>2014-02-09T09:49:48Z</time>
      </trkpt>
      <trkpt lat="45.76465" lon="4.82641">
        <ele>202.49</ele>
        <time>2014-02-09T09:50:04Z</time>
      </trkpt>
      <trkpt lat="45.76454" lon="4.82645">
        <ele>205.86</ele>
        <time>2014-02-09T09:50:16Z</time>
      </trkpt>
      <trkpt lat="45.76422" lon="4.82647">
        <ele>209.22</ele>
        <time>2014-02-09T09:50:32Z</time>
      </trkpt>
      <trkpt lat="45.76394" lon="4.82635">
        <ele>212.11</ele>
        <time>2014-02-09T09:50:48Z</time>
      </trkpt>
      <trkpt lat="45.76372" lon="4.82635">
        <ele>214.51</ele>
        <time>2014-02-09T09:51:05Z</time>
      </trkpt>
      <trkpt lat="45.76349" lon="4.82622">
        <ele>217.88</ele>
        <time>2014-02-09T09:51:17Z</time>
      </trkpt>
      <trkpt lat="45.76316" lon="4.82559">
        <ele>225.09</ele>
        <time>2014-02-09T09:51:49Z</time>
      </trkpt>
      <trkpt lat="45.7631" lon="4.82538">
        <ele>227.01</ele>
        <time>2014-02-09T09:52:01Z</time>
      </trkpt>
      <trkpt lat="45.76289" lon="4.82519">
        <ele>229.89</ele>
        <time>2014-02-09T09:52:14Z</time>
      </trkpt>
      <trkpt lat="45.76269" lon="4.82491">
        <ele>232.78</ele>
        <time>2014-02-09T09:52:31Z</time>
      </trkpt>
      <trkpt lat="45.76259" lon="4.82474">
        <ele>234.22</ele>
        <time>2014-02-09T09:52:41Z</time>
      </trkpt>
      <trkpt lat="45.76254" lon="4.82465">
        <ele>236.62</ele>
        <time>2014-02-09T09:52:49Z</time>
      </trkpt>
      <trkpt lat="45.76244" lon="4.82441">
        <ele>238.06</ele>
        <time>2014-02-09T09:52:59Z</time>
      </trkpt>
      <trkpt lat="45.76235" lon="4.82435">
        <ele>240.95</ele>
        <time>2014-02-09T09:53:10Z</time>
      </trkpt>
      <trkpt lat="45.76228" lon="4.82424">
        <ele>244.31</ele>
        <time>2014-02-09T09:53:19Z</time>
      </trkpt>
      <trkpt lat="45.76228" lon="4.82405">
        <ele>246.23</ele>
        <time>2014-02-09T09:53:29Z</time>
      </trkpt>
      <trkpt lat="45.76241" lon="4.82379">
        <ele>250.08</ele>
        <time>2014-02-09T09:53:45Z</time>
      </trkpt>
      <trkpt lat="45.76248" lon="4.82377">
        <ele>251.52</ele>
        <time>2014-02-09T09:53:49Z</time>
      </trkpt>
      <trkpt lat="45.76269" lon="4.82381">
        <ele>253.44</ele>
        <time>2014-02-09T09:54:03Z</time>
      </trkpt>
      <trkpt lat="45.76284" lon="4.8239">
        <ele>255.37</ele>
        <time>2014-02-09T09:54:16Z</time>
      </trkpt>
      <trkpt lat="45.76254" lon="4.82377">
        <ele>258.73</ele>
        <time>2014-02-09T09:54:36Z</time>
      </trkpt>
      <trkpt lat="45.76239" lon="4.82362">
        <ele>261.62</ele>
        <time>2014-02-09T09:54:49Z</time>
      </trkpt>
      <trkpt lat="45.76248" lon="4.82336">
        <ele>264.02</ele>
        <time>2014-02-09T09:55:04Z</time>
      </trkpt>
      <trkpt lat="45.76263" lon="4.82358">
        <ele>265.46</ele>
        <time>2014-02-09T09:55:18Z</time>
      </trkpt>
      <trkpt lat="45.76271" lon="4.82364">
        <ele>266.9</ele>
        <time>2014-02-09T09:55:23Z</time>
      </trkpt>
      <trkpt lat="45.76274" lon="4.82369">
        <ele>266.9</ele>
        <time>2014-02-09T09:55:24Z</time>
      </trkpt>
      <trkpt lat="45.76284" lon="4.82364">
        <ele>268.35</ele>
        <time>2014-02-09T09:55:34Z</time>
      </trkpt>
      <trkpt lat="45.76267" lon="4.82347">
        <ele>270.75</ele>
        <time>2014-02-09T09:55:47Z</time>
      </trkpt>
      <trkpt lat="45.7625" lon="4.82336">
        <ele>273.15</ele>
        <time>2014-02-09T09:55:59Z</time>
      </trkpt>
      <trkpt lat="45.76241" lon="4.82328">
        <ele>274.11</ele>
        <time>2014-02-09T09:56:06Z</time>
      </trkpt>
      <trkpt lat="45.76246" lon="4.82321">
        <ele>274.59</ele>
        <time>2014-02-09T09:56:11Z</time>
      </trkpt>
      <trkpt lat="45.76256" lon="4.82328">
        <ele>278.44</ele>
        <time>2014-02-09T09:56:23Z</time>
      </trkpt>
      <trkpt lat="45.76284" lon="4.82332">
        <ele>281.32</ele>
        <time>2014-02-09T09:56:40Z</time>
      </trkpt>
      <trkpt lat="45.76289" lon="4.82326">
        <ele>283.73</ele>
        <time>2014-02-09T09:56:47Z</time>
      </trkpt>
      <trkpt lat="45.76269" lon="4.82323">
        <ele>287.57</ele>
        <time>2014-02-09T09:57:03Z</time>
      </trkpt>
      <trkpt lat="45.76259" lon="4.82311">
        <ele>289.49</ele>
        <time>2014-02-09T09:57:12Z</time>
      </trkpt>
      <trkpt lat="45.76263" lon="4.82308">
        <ele>290.94</ele>
        <time>2014-02-09T09:57:15Z</time>
      </trkpt>
      <trkpt lat="45.76291" lon="4.82311">
        <ele>293.34</ele>
        <time>2014-02-09T09:57:31Z</time>
      </trkpt>
      <trkpt lat="45.76304" lon="4.82304">
        <ele>294.3</ele>
        <time>2014-02-09T09:57:44Z</time>
      </trkpt>
      <trkpt lat="45.76295" lon="4.82296">
        <ele>298.63</ele>
        <time>2014-02-09T09:57:57Z</time>
      </trkpt>
      <trkpt lat="45.76291" lon="4.82304">
        <ele>298.63</ele>
        <time>2014-02-09T09:58:07Z</time>
      </trkpt>
      <trkpt lat="45.76291" lon="4.82302">
        <ele>298.15</ele>
        <time>2014-02-09T09:58:21Z</time>
      </trkpt>
      <trkpt lat="45.76293" lon="4.82302">
        <ele>298.15</ele>
        <time>2014-02-09T09:58:31Z</time>
      </trkpt>
      <trkpt lat="45.76291" lon="4.823">
        <ele>298.15</ele>
        <time>2014-02-09T09:58:50Z</time>
      </trkpt>
      <trkpt lat="45.76286" lon="4.82276">
        <ele>298.63</ele>
        <time>2014-02-09T09:59:03Z</time>
      </trkpt>
      <trkpt lat="45.76293" lon="4.82225">
        <ele>297.67</ele>
        <time>2014-02-09T09:59:19Z</time>
      </trkpt>
      <trkpt lat="45.76321" lon="4.8222">
        <ele>297.18</ele>
        <time>2014-02-09T09:59:32Z</time>
      </trkpt>
      <trkpt lat="45.76351" lon="4.8222">
        <ele>295.74</ele>
        <time>2014-02-09T09:59:45Z</time>
      </trkpt>
      <trkpt lat="45.76355" lon="4.82173">
        <ele>294.3</ele>
        <time>2014-02-09T09:59:58Z</time>
      </trkpt>
      <trkpt lat="45.76338" lon="4.82145">
        <ele>293.82</ele>
        <time>2014-02-09T10:00:08Z</time>
      </trkpt>
      <trkpt lat="45.76312" lon="4.82075">
        <ele>290.94</ele>
        <time>2014-02-09T10:00:28Z</time>
      </trkpt>
      <trkpt lat="45.76306" lon="4.82038">
        <ele>289.49</ele>
        <time>2014-02-09T10:00:37Z</time>
      </trkpt>
      <trkpt lat="45.76299" lon="4.81989">
        <ele>286.13</ele>
        <time>2014-02-09T10:00:49Z</time>
      </trkpt>
      <trkpt lat="45.76334" lon="4.81875">
        <ele>282.77</ele>
        <time>2014-02-09T10:01:19Z</time>
      </trkpt>
      <trkpt lat="45.76338" lon="4.81851">
        <ele>285.65</ele>
        <time>2014-02-09T10:01:26Z</time>
      </trkpt>
      <trkpt lat="45.76336" lon="4.81708">
        <ele>287.57</ele>
        <time>2014-02-09T10:02:07Z</time>
      </trkpt>
      <trkpt lat="45.76329" lon="4.81669">
        <ele>288.05</ele>
        <time>2014-02-09T10:02:19Z</time>
      </trkpt>
      <trkpt lat="45.76349" lon="4.81652">
        <ele>282.77</ele>
        <time>2014-02-09T10:02:35Z</time>
      </trkpt>
      <trkpt lat="45.76353" lon="4.81639">
        <ele>279.4</ele>
        <time>2014-02-09T10:02:43Z</time>
      </trkpt>
      <trkpt lat="45.76362" lon="4.81622">
        <ele>276.04</ele>
        <time>2014-02-09T10:02:53Z</time>
      </trkpt>
      <trkpt lat="45.76368" lon="4.81624">
        <ele>275.07</ele>
        <time>2014-02-09T10:02:55Z</time>
      </trkpt>
      <trkpt lat="45.76381" lon="4.81637">
        <ele>272.67</ele>
        <time>2014-02-09T10:03:01Z</time>
      </trkpt>
      <trkpt lat="45.76398" lon="4.8166">
        <ele>268.83</ele>
        <time>2014-02-09T10:03:12Z</time>
      </trkpt>
      <trkpt lat="45.76394" lon="4.8168">
        <ele>267.38</ele>
        <time>2014-02-09T10:03:20Z</time>
      </trkpt>
      <trkpt lat="45.764" lon="4.81675">
        <ele>264.02</ele>
        <time>2014-02-09T10:03:26Z</time>
      </trkpt>
      <trkpt lat="45.76402" lon="4.81645">
        <ele>261.62</ele>
        <time>2014-02-09T10:03:37Z</time>
      </trkpt>
      <trkpt lat="45.76413" lon="4.81654">
        <ele>260.17</ele>
        <time>2014-02-09T10:03:41Z</time>
      </trkpt>
      <trkpt lat="45.76426" lon="4.81656">
        <ele>257.77</ele>
        <time>2014-02-09T10:03:45Z</time>
      </trkpt>
      <trkpt lat="45.76432" lon="4.8166">
        <ele>256.81</ele>
        <time>2014-02-09T10:03:48Z</time>
      </trkpt>
      <trkpt lat="45.76437" lon="4.8166">
        <ele>256.33</ele>
        <time>2014-02-09T10:03:50Z</time>
      </trkpt>
      <trkpt lat="45.76439" lon="4.8165">
        <ele>253.93</ele>
        <time>2014-02-09T10:03:56Z</time>
      </trkpt>
      <trkpt lat="45.76439" lon="4.81669">
        <ele>251.52</ele>
        <time>2014-02-09T10:04:06Z</time>
      </trkpt>
      <trkpt lat="45.76432" lon="4.81686">
        <ele>249.6</ele>
        <time>2014-02-09T10:04:18Z</time>
      </trkpt>
      <trkpt lat="45.76456" lon="4.81682">
        <ele>246.72</ele>
        <time>2014-02-09T10:04:29Z</time>
      </trkpt>
      <trkpt lat="45.7648" lon="4.81697">
        <ele>240.95</ele>
        <time>2014-02-09T10:04:49Z</time>
      </trkpt>
      <trkpt lat="45.76482" lon="4.81695">
        <ele>240.47</ele>
        <time>2014-02-09T10:04:51Z</time>
      </trkpt>
      <trkpt lat="45.76501" lon="4.81712">
        <ele>233.26</ele>
        <time>2014-02-09T10:05:08Z</time>
      </trkpt>
      <trkpt lat="45.76507" lon="4.8171">
        <ele>231.33</ele>
        <time>2014-02-09T10:05:16Z</time>
      </trkpt>
      <trkpt lat="45.76507" lon="4.81703">
        <ele>229.41</ele>
        <time>2014-02-09T10:05:22Z</time>
      </trkpt>
      <trkpt lat="45.76512" lon="4.81701">
        <ele>227.97</ele>
        <time>2014-02-09T10:05:25Z</time>
      </trkpt>
      <trkpt lat="45.76525" lon="4.81682">
        <ele>226.05</ele>
        <time>2014-02-09T10:05:35Z</time>
      </trkpt>
      <trkpt lat="45.76525" lon="4.81673">
        <ele>227.01</ele>
        <time>2014-02-09T10:05:39Z</time>
      </trkpt>
      <trkpt lat="45.76518" lon="4.81675">
        <ele>230.37</ele>
        <time>2014-02-09T10:05:51Z</time>
      </trkpt>
      <trkpt lat="45.76512" lon="4.81671">
        <ele>231.81</ele>
        <time>2014-02-09T10:05:55Z</time>
      </trkpt>
      <trkpt lat="45.76495" lon="4.81648">
        <ele>239.51</ele>
        <time>2014-02-09T10:06:24Z</time>
      </trkpt>
      <trkpt lat="45.76471" lon="4.81626">
        <ele>246.23</ele>
        <time>2014-02-09T10:06:54Z</time>
      </trkpt>
      <trkpt lat="45.76456" lon="4.81607">
        <ele>252</ele>
        <time>2014-02-09T10:07:16Z</time>
      </trkpt>
      <trkpt lat="45.76437" lon="4.81596">
        <ele>257.77</ele>
        <time>2014-02-09T10:07:34Z</time>
      </trkpt>
      <trkpt lat="45.7643" lon="4.8159">
        <ele>259.69</ele>
        <time>2014-02-09T10:07:42Z</time>
      </trkpt>
      <trkpt lat="45.76417" lon="4.81585">
        <ele>262.58</ele>
        <time>2014-02-09T10:08:00Z</time>
      </trkpt>
      <trkpt lat="45.76396" lon="4.81577">
        <ele>272.19</ele>
        <time>2014-02-09T10:08:33Z</time>
      </trkpt>
      <trkpt lat="45.76392" lon="4.8157">
        <ele>272.67</ele>
        <time>2014-02-09T10:08:41Z</time>
      </trkpt>
      <trkpt lat="45.76383" lon="4.81542">
        <ele>277.96</ele>
        <time>2014-02-09T10:09:05Z</time>
      </trkpt>
      <trkpt lat="45.76377" lon="4.81489">
        <ele>288.53</ele>
        <time>2014-02-09T10:09:39Z</time>
      </trkpt>
      <trkpt lat="45.76351" lon="4.81502">
        <ele>289.97</ele>
        <time>2014-02-09T10:10:01Z</time>
      </trkpt>
      <trkpt lat="45.76327" lon="4.81504">
        <ele>290.94</ele>
        <time>2014-02-09T10:10:16Z</time>
      </trkpt>
      <trkpt lat="45.76325" lon="4.81508">
        <ele>291.42</ele>
        <time>2014-02-09T10:10:23Z</time>
      </trkpt>
      <trkpt lat="45.76327" lon="4.81517">
        <ele>291.9</ele>
        <time>2014-02-09T10:10:27Z</time>
      </trkpt>
      <trkpt lat="45.76331" lon="4.81562">
        <ele>290.94</ele>
        <time>2014-02-09T10:10:41Z</time>
      </trkpt>
      <trkpt lat="45.76331" lon="4.81609">
        <ele>289.97</ele>
        <time>2014-02-09T10:10:57Z</time>
      </trkpt>
      <trkpt lat="45.76329" lon="4.81639">
        <ele>289.97</ele>
        <time>2014-02-09T10:11:06Z</time>
      </trkpt>
      <trkpt lat="45.76331" lon="4.81678">
        <ele>289.97</ele>
        <time>2014-02-09T10:11:20Z</time>
      </trkpt>
      <trkpt lat="45.76342" lon="4.81774">
        <ele>288.05</ele>
        <time>2014-02-09T10:11:49Z</time>
      </trkpt>
      <trkpt lat="45.76351" lon="4.81806">
        <ele>286.61</ele>
        <time>2014-02-09T10:11:59Z</time>
      </trkpt>
      <trkpt lat="45.76347" lon="4.81858">
        <ele>286.61</ele>
        <time>2014-02-09T10:12:10Z</time>
      </trkpt>
      <trkpt lat="45.76327" lon="4.81916">
        <ele>286.13</ele>
        <time>2014-02-09T10:12:23Z</time>
      </trkpt>
      <trkpt lat="45.76304" lon="4.81999">
        <ele>287.09</ele>
        <time>2014-02-09T10:12:48Z</time>
      </trkpt>
      <trkpt lat="45.76306" lon="4.82025">
        <ele>288.53</ele>
        <time>2014-02-09T10:13:00Z</time>
      </trkpt>
      <trkpt lat="45.76344" lon="4.8215">
        <ele>293.82</ele>
        <time>2014-02-09T10:13:49Z</time>
      </trkpt>
      <trkpt lat="45.76362" lon="4.82175">
        <ele>293.82</ele>
        <time>2014-02-09T10:14:00Z</time>
      </trkpt>
      <trkpt lat="45.76364" lon="4.82208">
        <ele>293.82</ele>
        <time>2014-02-09T10:14:10Z</time>
      </trkpt>
      <trkpt lat="45.7637" lon="4.82225">
        <ele>294.78</ele>
        <time>2014-02-09T10:14:19Z</time>
      </trkpt>
      <trkpt lat="45.76372" lon="4.82225">
        <ele>294.3</ele>
        <time>2014-02-09T10:14:20Z</time>
      </trkpt>
      <trkpt lat="45.76381" lon="4.82235">
        <ele>294.3</ele>
        <time>2014-02-09T10:14:25Z</time>
      </trkpt>
      <trkpt lat="45.76396" lon="4.82272">
        <ele>292.86</ele>
        <time>2014-02-09T10:14:40Z</time>
      </trkpt>
      <trkpt lat="45.76402" lon="4.82272">
        <ele>291.42</ele>
        <time>2014-02-09T10:14:44Z</time>
      </trkpt>
      <trkpt lat="45.76422" lon="4.82263">
        <ele>289.49</ele>
        <time>2014-02-09T10:14:50Z</time>
      </trkpt>
      <trkpt lat="45.76449" lon="4.82274">
        <ele>285.65</ele>
        <time>2014-02-09T10:15:03Z</time>
      </trkpt>
      <trkpt lat="45.76456" lon="4.82276">
        <ele>282.28</ele>
        <time>2014-02-09T10:15:10Z</time>
      </trkpt>
      <trkpt lat="45.76467" lon="4.82283">
        <ele>278.92</ele>
        <time>2014-02-09T10:15:17Z</time>
      </trkpt>
      <trkpt lat="45.76486" lon="4.823">
        <ele>273.15</ele>
        <time>2014-02-09T10:15:30Z</time>
      </trkpt>
      <trkpt lat="45.76501" lon="4.82308">
        <ele>269.79</ele>
        <time>2014-02-09T10:15:38Z</time>
      </trkpt>
      <trkpt lat="45.76522" lon="4.8233">
        <ele>263.54</ele>
        <time>2014-02-09T10:15:56Z</time>
      </trkpt>
      <trkpt lat="45.76535" lon="4.82345">
        <ele>258.73</ele>
        <time>2014-02-09T10:16:06Z</time>
      </trkpt>
      <trkpt lat="45.76535" lon="4.82354">
        <ele>257.29</ele>
        <time>2014-02-09T10:16:10Z</time>
      </trkpt>
      <trkpt lat="45.76552" lon="4.82375">
        <ele>250.08</ele>
        <time>2014-02-09T10:16:29Z</time>
      </trkpt>
      <trkpt lat="45.76578" lon="4.82401">
        <ele>236.14</ele>
        <time>2014-02-09T10:17:08Z</time>
      </trkpt>
      <trkpt lat="45.76589" lon="4.82416">
        <ele>233.26</ele>
        <time>2014-02-09T10:17:17Z</time>
      </trkpt>
      <trkpt lat="45.76621" lon="4.82444">
        <ele>224.61</ele>
        <time>2014-02-09T10:17:42Z</time>
      </trkpt>
      <trkpt lat="45.76628" lon="4.82448">
        <ele>222.68</ele>
        <time>2014-02-09T10:17:47Z</time>
      </trkpt>
      <trkpt lat="45.76638" lon="4.82478">
        <ele>219.32</ele>
        <time>2014-02-09T10:17:55Z</time>
      </trkpt>
      <trkpt lat="45.76645" lon="4.8254">
        <ele>216.43</ele>
        <time>2014-02-09T10:18:13Z</time>
      </trkpt>
      <trkpt lat="45.76628" lon="4.82549">
        <ele>213.55</ele>
        <time>2014-02-09T10:18:21Z</time>
      </trkpt>
      <trkpt lat="45.76621" lon="4.82555">
        <ele>211.15</ele>
        <time>2014-02-09T10:18:25Z</time>
      </trkpt>
      <trkpt lat="45.76615" lon="4.82581">
        <ele>208.26</ele>
        <time>2014-02-09T10:18:32Z</time>
      </trkpt>
      <trkpt lat="45.76619" lon="4.82613">
        <ele>200.57</ele>
        <time>2014-02-09T10:18:48Z</time>
      </trkpt>
      <trkpt lat="45.76628" lon="4.82669">
        <ele>197.21</ele>
        <time>2014-02-09T10:18:56Z</time>
      </trkpt>
      <trkpt lat="45.76634" lon="4.82686">
        <ele>195.77</ele>
        <time>2014-02-09T10:19:01Z</time>
      </trkpt>
      <trkpt lat="45.76636" lon="4.8268">
        <ele>192.4</ele>
        <time>2014-02-09T10:19:05Z</time>
      </trkpt>
      <trkpt lat="45.76621" lon="4.82688">
        <ele>189.04</ele>
        <time>2014-02-09T10:19:12Z</time>
      </trkpt>
      <trkpt lat="45.76598" lon="4.82716">
        <ele>186.15</ele>
        <time>2014-02-09T10:19:21Z</time>
      </trkpt>
      <trkpt lat="45.76608" lon="4.82742">
        <ele>184.23</ele>
        <time>2014-02-09T10:19:33Z</time>
      </trkpt>
      <trkpt lat="45.76619" lon="4.82781">
        <ele>181.83</ele>
        <time>2014-02-09T10:19:50Z</time>
      </trkpt>
      <trkpt lat="45.76623" lon="4.82819">
        <ele>178.46</ele>
        <time>2014-02-09T10:20:02Z</time>
      </trkpt>
      <trkpt lat="45.76638" lon="4.8286">
        <ele>178.46</ele>
        <time>2014-02-09T10:20:16Z</time>
      </trkpt>
      <trkpt lat="45.76645" lon="4.82905">
        <ele>179.9</ele>
        <time>2014-02-09T10:20:29Z</time>
      </trkpt>
      <trkpt lat="45.76662" lon="4.82933">
        <ele>180.87</ele>
        <time>2014-02-09T10:20:39Z</time>
      </trkpt>
      <trkpt lat="45.76673" lon="4.82969">
        <ele>180.87</ele>
        <time>2014-02-09T10:20:50Z</time>
      </trkpt>
      <trkpt lat="45.76686" lon="4.82995">
        <ele>179.9</ele>
        <time>2014-02-09T10:21:00Z</time>
      </trkpt>
      <trkpt lat="45.76698" lon="4.83006">
        <ele>178.46</ele>
        <time>2014-02-09T10:21:08Z</time>
      </trkpt>
      <trkpt lat="45.76718" lon="4.83027">
        <ele>178.94</ele>
        <time>2014-02-09T10:21:17Z</time>
      </trkpt>
      <trkpt lat="45.7672" lon="4.83059">
        <ele>178.94</ele>
        <time>2014-02-09T10:21:27Z</time>
      </trkpt>
      <trkpt lat="45.76756" lon="4.8309">
        <ele>178.46</ele>
        <time>2014-02-09T10:21:44Z</time>
      </trkpt>
      <trkpt lat="45.76774" lon="4.83109">
        <ele>178.94</ele>
        <time>2014-02-09T10:21:58Z</time>
      </trkpt>
      <trkpt lat="45.7678" lon="4.83117">
        <ele>179.42</ele>
        <time>2014-02-09T10:22:01Z</time>
      </trkpt>
      <trkpt lat="45.76804" lon="4.83177">
        <ele>179.42</ele>
        <time>2014-02-09T10:22:23Z</time>
      </trkpt>
      <trkpt lat="45.76806" lon="4.83229">
        <ele>178.46</ele>
        <time>2014-02-09T10:22:38Z</time>
      </trkpt>
      <trkpt lat="45.76804" lon="4.8328">
        <ele>176.54</ele>
        <time>2014-02-09T10:22:50Z</time>
      </trkpt>
      <trkpt lat="45.7681" lon="4.83347">
        <ele>177.02</ele>
        <time>2014-02-09T10:23:06Z</time>
      </trkpt>
      <trkpt lat="45.76825" lon="4.83398">
        <ele>176.06</ele>
        <time>2014-02-09T10:23:19Z</time>
      </trkpt>
      <trkpt lat="45.76834" lon="4.8345">
        <ele>176.06</ele>
        <time>2014-02-09T10:23:32Z</time>
      </trkpt>
      <trkpt lat="45.76838" lon="4.83493">
        <ele>175.58</ele>
        <time>2014-02-09T10:23:45Z</time>
      </trkpt>
      <trkpt lat="45.76827" lon="4.83538">
        <ele>174.62</ele>
        <time>2014-02-09T10:23:57Z</time>
      </trkpt>
      <trkpt lat="45.76838" lon="4.83598">
        <ele>176.06</ele>
        <time>2014-02-09T10:24:13Z</time>
      </trkpt>
      <trkpt lat="45.76814" lon="4.83667">
        <ele>177.5</ele>
        <time>2014-02-09T10:24:22Z</time>
      </trkpt>
      <trkpt lat="45.76844" lon="4.83774">
        <ele>176.54</ele>
        <time>2014-02-09T10:24:53Z</time>
      </trkpt>
      <trkpt lat="45.76859" lon="4.83776">
        <ele>177.98</ele>
        <time>2014-02-09T10:25:16Z</time>
      </trkpt>
      <trkpt lat="45.76857" lon="4.83826">
        <ele>177.5</ele>
        <time>2014-02-09T10:25:45Z</time>
      </trkpt>
      <trkpt lat="45.76872" lon="4.83868">
        <ele>178.94</ele>
        <time>2014-02-09T10:25:58Z</time>
      </trkpt>
      <trkpt lat="45.76872" lon="4.83976">
        <ele>180.38</ele>
        <time>2014-02-09T10:26:22Z</time>
      </trkpt>
      <trkpt lat="45.76877" lon="4.84019">
        <ele>179.9</ele>
        <time>2014-02-09T10:26:32Z</time>
      </trkpt>
      <trkpt lat="45.76877" lon="4.84057">
        <ele>178.94</ele>
        <time>2014-02-09T10:26:41Z</time>
      </trkpt>
      <trkpt lat="45.76892" lon="4.84096">
        <ele>176.54</ele>
        <time>2014-02-09T10:26:52Z</time>
      </trkpt>
      <trkpt lat="45.76898" lon="4.841">
        <ele>176.06</ele>
        <time>2014-02-09T10:26:55Z</time>
      </trkpt>
      <trkpt lat="45.7693" lon="4.84092">
        <ele>172.69</ele>
        <time>2014-02-09T10:27:06Z</time>
      </trkpt>
      <trkpt lat="45.76939" lon="4.84083">
        <ele>172.21</ele>
        <time>2014-02-09T10:27:10Z</time>
      </trkpt>
      <trkpt lat="45.76986" lon="4.84083">
        <ele>172.69</ele>
        <time>2014-02-09T10:27:27Z</time>
      </trkpt>
      <trkpt lat="45.77055" lon="4.84077">
        <ele>172.69</ele>
        <time>2014-02-09T10:27:49Z</time>
      </trkpt>
      <trkpt lat="45.77093" lon="4.84079">
        <ele>173.66</ele>
        <time>2014-02-09T10:28:02Z</time>
      </trkpt>
      <trkpt lat="45.7711" lon="4.84074">
        <ele>172.69</ele>
        <time>2014-02-09T10:28:08Z</time>
      </trkpt>
      <trkpt lat="45.77123" lon="4.84109">
        <ele>173.66</ele>
        <time>2014-02-09T10:28:20Z</time>
      </trkpt>
      <trkpt lat="45.7713" lon="4.8416">
        <ele>172.69</ele>
        <time>2014-02-09T10:28:32Z</time>
      </trkpt>
      <trkpt lat="45.77132" lon="4.84216">
        <ele>172.21</ele>
        <time>2014-02-09T10:28:46Z</time>
      </trkpt>
      <trkpt lat="45.77143" lon="4.8427">
        <ele>173.17</ele>
        <time>2014-02-09T10:29:00Z</time>
      </trkpt>
      <trkpt lat="45.77147" lon="4.84313">
        <ele>172.69</ele>
        <time>2014-02-09T10:29:11Z</time>
      </trkpt>
      <trkpt lat="45.77153" lon="4.84325">
        <ele>171.73</ele>
        <time>2014-02-09T10:29:22Z</time>
      </trkpt>
      <trkpt lat="45.77188" lon="4.8442">
        <ele>172.21</ele>
        <time>2014-02-09T10:29:51Z</time>
      </trkpt>
      <trkpt lat="45.77192" lon="4.84439">
        <ele>174.14</ele>
        <time>2014-02-09T10:30:03Z</time>
      </trkpt>
    </trkseg>
  </trk>
</gpx>